Rowley, IA

5:28 PM CDT on August 30, 2014 (GMT -0500)
Terrace Drive SE | Change Station
CLOSE
Current Station
Personal Weather Station
Location: Independence, IA
Elevation: 940 ft
Nearby Weather Stations

Elev 940 ft 42.47 °N, 91.88 °W | Updated 7 seconds ago

Partly Cloudy
Partly Cloudy
79.0 °F
Feels Like 81 °F
N
1.0
Wind Variable Wind from WNW
Gusts 12.0 mph

Today
High -- | Low -- °F
--% Chance of Precip.
Yesterday
High -- | Low -- °F
Precip. -- in
6:30 AM 7:44 PM
Waxing Crescent, 25% visible
Pressure 29.87 in
Visibility 10.0 miles
Clouds Clear
Heat Index 81 °F
Dew Point 68 °F
Humidity 69%
Rainfall 0.03 in
Snow Depth Not available.
UV 2 out of 12
Pollen 5.70 out of 12
Air Quality Not available.
Flu Activity Not available.
METAR KVTI 302215Z AUTO 27005KT 10SM CLR 27/18 A2987 RMK AO2 T02700182

More Conditions Fewer Conditions

Pressure 29.87 in
Visibility 10.0 miles
Clouds Clear
Heat Index 81 °F
Dew Point 68 °F
Humidity 69%
Rainfall 0.03 in
Snow Depth Not available.
UV 2 out of 12
Pollen 5.70 out of 12
Air Quality Not available.
Flu Activity Not available.
METAR KVTI 302215Z AUTO 27005KT 10SM CLR 27/18 A2987 RMK AO2 T02700182

More Conditions Fewer Conditions

10-Day Weather Forecast

Almanac

Astronomy

Aug. 30, 2014 Rise Set
Actual Time 6:30 AM CDT 7:44 PM CDT
Civil Twilight 6:01 AM CDT 8:13 PM CDT
Nautical Twilight 5:26 AM CDT 8:48 PM CDT
Astronomical Twilight 4:49 AM CDT 9:24 PM CDT
Moon 11:24 AM CDT 10:12 PM CDT
Length of Visible Light 14h 12m
Length of Day
13h 14m
Tomorrow will be 2m 43s shorter.
Waxing Crescent, 25% of the Moon is Illuminated
Today
Waxing Crescent
Sep 2
First Quarter
Sep 8
Full
Sep 15
Last Quarter
Sep 24
New

Today's Extremes

State Highs State Lows

Community

WunderPhotos

Upload Photos

1,748,657 photos uploaded!

WunderBlogs® & News

Nearby

Snow Depth

Station Depth Elevation
No new snow has been reported.

Earthquake Activity

City Distance Mag. Time & Date
No recent earthquake activity has been reported nearby.
Minimum magnitude displayed is 2.5.

Coastal Water Temperatures

Place Temperature
No Stations Reporting

Nearby Weather Stations